FAHS/HDS METAR and TAF weather

Enter ICAO airport designator
Station Type Date Time Source
FAHS METAR 2022/01/18 06:00 UTC NOAA

FAHS 180600Z AUTO 15006KT //// // ////// 22/22 Q1019


Station Type Date Time Source
FAHS Decoded METAR 2022/01/18 06:00 UTC NOAA

Hoedspruit, South Africa (FAHS) 24-22S 031-02E 500M
Jan 18, 2022 - 01:00 AM EST / 2022.01.18 0600 UTC
Wind: from the SSE (150 degrees) at 7 MPH (6 KT):0
Temperature: 71 F (22 C)
Dew Point: 71 F (22 C)
Relative Humidity: 100%
Pressure (altimeter): 30.09 in. Hg (1019 hPa)
ob: FAHS 180600Z AUTO 15006KT //// // ////// 22/22 Q1019
cycle: 6

Station Type Date Time Source
FAHS TAF 2017/05/23 04:01 UTC NOAA

TAF FAHS 230300Z 2304/2315 VRB02KT CAVOK TX29/2312ZTN12/2304Z

Example: see airport list